sensor_id;sensor_type;location;lat;lon;timestamp;P1;durP1;ratioP1;P2;durP2;ratioP2
3696;SDS011;60662;48.810;8.872;2023-05-09T06:26:51;12.88;;;9.10;;
3696;SDS011;60662;48.810;8.872;2023-05-09T06:27:52;13.00;;;9.25;;
3696;SDS011;60662;48.810;8.872;2023-05-09T06:28:54;13.20;;;9.00;;
3696;SDS011;60662;48.810;8.872;2023-05-09T06:29:56;12.10;;;8.38;;
3696;SDS011;60662;48.810;8.872;2023-05-09T06:30:57;15.30;;;10.35;;
3696;SDS011;60662;48.810;8.872;2023-05-09T06:31:59;13.50;;;8.93;;
3696;SDS011;60662;48.810;8.872;2023-05-09T06:33:00;16.00;;;9.45;;
3696;SDS011;60662;48.810;8.872;2023-05-09T06:34:03;11.45;;;8.13;;
3696;SDS011;60662;48.810;8.872;2023-05-09T06:35:05;12.70;;;8.77;;
3696;SDS011;60662;48.810;8.872;2023-05-09T06:36:06;11.32;;;7.80;;
3696;SDS011;60662;48.810;8.872;2023-05-09T06:37:08;10.30;;;7.40;;
3696;SDS011;60662;48.810;8.872;2023-05-09T06:38:09;14.90;;;6.90;;
3696;SDS011;60662;48.810;8.872;2023-05-09T06:39:11;11.05;;;7.80;;
3696;SDS011;60662;48.810;8.872;2023-05-09T06:40:12;9.20;;;6.90;;
3696;SDS011;60662;48.810;8.872;2023-05-09T06:41:14;11.05;;;8.05;;
3696;SDS011;60662;48.810;8.872;2023-05-09T06:42:15;10.43;;;7.45;;
3696;SDS011;60662;48.810;8.872;2023-05-09T06:43:17;11.90;;;7.93;;
3696;SDS011;60662;48.810;8.872;2023-05-09T06:44:18;10.23;;;7.35;;
3696;SDS011;60662;48.810;8.872;2023-05-09T06:45:20;7.20;;;5.75;;
3696;SDS011;60662;48.810;8.872;2023-05-09T06:46:21;8.05;;;5.82;;
3696;SDS011;60662;48.810;8.872;2023-05-09T06:47:22;9.18;;;6.45;;
3696;SDS011;60662;48.810;8.872;2023-05-09T06:48:24;8.85;;;6.35;;
3696;SDS011;60662;48.810;8.872;2023-05-09T06:49:26;7.53;;;6.28;;
3696;SDS011;60662;48.810;8.872;2023-05-09T06:50:28;10.20;;;6.10;;
3696;SDS011;60662;48.810;8.872;2023-05-09T06:51:32;16.63;;;7.55;;
3696;SDS011;60662;48.810;8.872;2023-05-09T06:52:34;9.88;;;6.18;;
3696;SDS011;60662;48.810;8.872;2023-05-09T06:53:36;8.80;;;5.75;;
3696;SDS011;60662;48.810;8.872;2023-05-09T06:54:38;8.20;;;5.88;;
3696;SDS011;60662;48.810;8.872;2023-05-09T06:55:39;12.07;;;6.43;;
3696;SDS011;60662;48.810;8.872;2023-05-09T06:56:41;8.80;;;6.40;;
3696;SDS011;60662;48.810;8.872;2023-05-09T06:57:43;11.52;;;6.50;;
3696;SDS011;60662;48.810;8.872;2023-05-09T06:58:44;13.80;;;6.00;;
3696;SDS011;60662;48.810;8.872;2023-05-09T06:59:46;8.85;;;6.07;;
3696;SDS011;60662;48.810;8.872;2023-05-09T07:00:47;8.32;;;6.20;;
3696;SDS011;60662;48.810;8.872;2023-05-09T07:01:49;8.40;;;6.28;;
3696;SDS011;60662;48.810;8.872;2023-05-09T07:02:50;7.32;;;6.07;;
3696;SDS011;60662;48.810;8.872;2023-05-09T07:03:52;7.57;;;6.00;;
3696;SDS011;60662;48.810;8.872;2023-05-09T07:04:53;9.07;;;6.43;;
3696;SDS011;60662;48.810;8.872;2023-05-09T07:05:55;9.73;;;6.40;;
3696;SDS011;60662;48.810;8.872;2023-05-09T07:06:59;10.57;;;6.30;;
3696;SDS011;60662;48.810;8.872;2023-05-09T07:08:00;10.43;;;7.13;;
3696;SDS011;60662;48.810;8.872;2023-05-09T07:09:02;8.65;;;6.40;;
3696;SDS011;60662;48.810;8.872;2023-05-09T07:10:04;10.60;;;6.80;;
3696;SDS011;60662;48.810;8.872;2023-05-09T07:11:12;9.50;;;7.50;;
3696;SDS011;60662;48.810;8.872;2023-05-09T07:12:13;10.10;;;6.88;;
3696;SDS011;60662;48.810;8.872;2023-05-09T07:13:15;8.27;;;5.68;;
3696;SDS011;60662;48.810;8.872;2023-05-09T07:14:16;10.63;;;6.80;;
3696;SDS011;60662;48.810;8.872;2023-05-09T07:15:18;11.23;;;6.78;;
3696;SDS011;60662;48.810;8.872;2023-05-09T07:16:40;12.70;;;9.65;;
3696;SDS011;60662;48.810;8.872;2023-05-09T07:17:41;12.32;;;7.10;;
3696;SDS011;60662;48.810;8.872;2023-05-09T07:18:43;15.45;;;7.30;;
3696;SDS011;60662;48.810;8.872;2023-05-09T07:19:44;13.75;;;7.72;;
3696;SDS011;60662;48.810;8.872;2023-05-09T07:20:46;15.68;;;8.27;;
3696;SDS011;60662;48.810;8.872;2023-05-09T07:21:47;8.50;;;6.53;;
3696;SDS011;60662;48.810;8.872;2023-05-09T07:22:48;9.88;;;7.63;;
3696;SDS011;60662;48.810;8.872;2023-05-09T07:23:50;15.70;;;7.70;;
3696;SDS011;60662;48.810;8.872;2023-05-09T07:24:51;11.45;;;8.23;;
3696;SDS011;60662;48.810;8.872;2023-05-09T07:25:56;11.85;;;7.68;;
3696;SDS011;60662;48.810;8.872;2023-05-09T07:27:02;13.32;;;7.60;;
3696;SDS011;60662;48.810;8.872;2023-05-09T07:28:03;13.80;;;8.40;;
3696;SDS011;60662;48.810;8.872;2023-05-09T07:29:05;10.75;;;8.93;;
3696;SDS011;60662;48.810;8.872;2023-05-09T07:30:07;11.05;;;7.78;;
3696;SDS011;60662;48.810;8.872;2023-05-09T07:31:09;15.07;;;8.43;;
3696;SDS011;60662;48.810;8.872;2023-05-09T07:32:11;9.75;;;7.60;;
3696;SDS011;60662;48.810;8.872;2023-05-09T07:33:12;12.25;;;8.43;;
3696;SDS011;60662;48.810;8.872;2023-05-09T07:34:15;11.80;;;8.30;;
3696;SDS011;60662;48.810;8.872;2023-05-09T07:35:17;12.20;;;8.07;;
3696;SDS011;60662;48.810;8.872;2023-05-09T07:36:19;13.85;;;9.32;;
3696;SDS011;60662;48.810;8.872;2023-05-09T07:37:21;12.02;;;7.75;;
3696;SDS011;60662;48.810;8.872;2023-05-09T07:38:22;16.00;;;8.88;;
3696;SDS011;60662;48.810;8.872;2023-05-09T07:39:23;10.40;;;7.82;;
3696;SDS011;60662;48.810;8.872;2023-05-09T07:40:25;9.80;;;8.00;;
3696;SDS011;60662;48.810;8.872;2023-05-09T07:41:26;10.68;;;7.93;;
3696;SDS011;60662;48.810;8.872;2023-05-09T07:42:28;16.30;;;8.98;;
3696;SDS011;60662;48.810;8.872;2023-05-09T07:43:30;13.00;;;8.07;;
3696;SDS011;60662;48.810;8.872;2023-05-09T07:44:32;11.65;;;7.95;;
3696;SDS011;60662;48.810;8.872;2023-05-09T07:45:33;12.40;;;8.88;;
3696;SDS011;60662;48.810;8.872;2023-05-09T07:46:35;13.13;;;8.52;;
3696;SDS011;60662;48.810;8.872;2023-05-09T07:47:42;13.30;;;7.82;;
3696;SDS011;60662;48.810;8.872;2023-05-09T07:48:43;12.25;;;8.10;;
3696;SDS011;60662;48.810;8.872;2023-05-09T07:49:44;13.98;;;7.85;;
3696;SDS011;60662;48.810;8.872;2023-05-09T07:50:47;14.38;;;8.43;;
3696;SDS011;60662;48.810;8.872;2023-05-09T07:51:49;11.10;;;8.38;;
3696;SDS011;60662;48.810;8.872;2023-05-09T07:52:50;14.10;;;9.00;;
3696;SDS011;60662;48.810;8.872;2023-05-09T07:53:52;14.07;;;9.88;;
3696;SDS011;60662;48.810;8.872;2023-05-09T07:54:56;14.60;;;8.98;;
3696;SDS011;60662;48.810;8.872;2023-05-09T07:55:57;12.65;;;9.40;;
3696;SDS011;60662;48.810;8.872;2023-05-09T07:56:59;11.65;;;8.40;;
3696;SDS011;60662;48.810;8.872;2023-05-09T07:58:00;12.45;;;8.48;;
3696;SDS011;60662;48.810;8.872;2023-05-09T07:59:02;12.68;;;9.32;;
3696;SDS011;60662;48.810;8.872;2023-05-09T08:00:03;11.30;;;8.45;;
3696;SDS011;60662;48.810;8.872;2023-05-09T08:01:06;13.05;;;9.82;;
3696;SDS011;60662;48.810;8.872;2023-05-09T08:02:07;13.05;;;9.13;;
3696;SDS011;60662;48.810;8.872;2023-05-09T08:03:09;12.52;;;9.43;;
3696;SDS011;60662;48.810;8.872;2023-05-09T08:04:10;16.65;;;10.70;;
3696;SDS011;60662;48.810;8.872;2023-05-09T08:05:12;12.95;;;8.52;;
3696;SDS011;60662;48.810;8.872;2023-05-09T08:06:14;12.63;;;9.20;;
3696;SDS011;60662;48.810;8.872;2023-05-09T08:07:16;15.27;;;10.10;;
3696;SDS011;60662;48.810;8.872;2023-05-09T08:08:17;11.00;;;8.55;;
3696;SDS011;60662;48.810;8.872;2023-05-09T08:09:18;13.45;;;9.73;;
3696;SDS011;60662;48.810;8.872;2023-05-09T08:10:21;12.32;;;8.60;;
3696;SDS011;60662;48.810;8.872;2023-05-09T08:11:23;13.35;;;8.65;;
3696;SDS011;60662;48.810;8.872;2023-05-09T08:12:24;11.15;;;8.63;;
3696;SDS011;60662;48.810;8.872;2023-05-09T08:13:26;12.20;;;8.40;;
3696;SDS011;60662;48.810;8.872;2023-05-09T08:20:24;12.20;;;8.43;;
3696;SDS011;60662;48.810;8.872;2023-05-09T08:21:26;11.35;;;8.43;;
3696;SDS011;60662;48.810;8.872;2023-05-09T08:22:27;12.35;;;8.70;;
3696;SDS011;60662;48.810;8.872;2023-05-09T08:23:28;20.48;;;8.55;;
3696;SDS011;60662;48.810;8.872;2023-05-09T08:25:52;12.70;;;8.88;;
3696;SDS011;60662;48.810;8.872;2023-05-09T08:26:54;12.90;;;9.07;;
3696;SDS011;60662;48.810;8.872;2023-05-09T08:27:56;16.50;;;9.85;;
3696;SDS011;60662;48.810;8.872;2023-05-09T08:28:57;15.95;;;9.35;;
3696;SDS011;60662;48.810;8.872;2023-05-09T08:29:59;12.52;;;9.75;;
3696;SDS011;60662;48.810;8.872;2023-05-09T08:31:00;14.02;;;9.48;;
3696;SDS011;60662;48.810;8.872;2023-05-09T08:32:02;14.07;;;9.88;;
3696;SDS011;60662;48.810;8.872;2023-05-09T08:33:03;12.55;;;7.95;;
3696;SDS011;60662;48.810;8.872;2023-05-09T08:34:05;11.93;;;8.07;;
3696;SDS011;60662;48.810;8.872;2023-05-09T08:35:06;16.95;;;8.45;;
3696;SDS011;60662;48.810;8.872;2023-05-09T08:36:09;14.00;;;8.70;;
3696;SDS011;60662;48.810;8.872;2023-05-09T08:37:10;11.25;;;8.52;;
3696;SDS011;60662;48.810;8.872;2023-05-09T08:38:15;15.80;;;9.35;;
3696;SDS011;60662;48.810;8.872;2023-05-09T08:39:16;16.10;;;8.68;;
3696;SDS011;60662;48.810;8.872;2023-05-09T08:40:19;13.18;;;8.93;;
3696;SDS011;60662;48.810;8.872;2023-05-09T08:41:23;11.88;;;8.13;;
3696;SDS011;60662;48.810;8.872;2023-05-09T08:42:29;11.52;;;8.90;;
3696;SDS011;60662;48.810;8.872;2023-05-09T08:43:32;10.23;;;8.18;;
3696;SDS011;60662;48.810;8.872;2023-05-09T08:44:34;10.50;;;7.90;;
3696;SDS011;60662;48.810;8.872;2023-05-09T08:45:41;17.25;;;9.30;;
3696;SDS011;60662;48.810;8.872;2023-05-09T08:46:46;11.13;;;8.05;;
3696;SDS011;60662;48.810;8.872;2023-05-09T08:47:49;12.55;;;7.70;;
3696;SDS011;60662;48.810;8.872;2023-05-09T08:48:52;10.38;;;7.30;;
3696;SDS011;60662;48.810;8.872;2023-05-09T08:49:54;18.80;;;7.88;;
3696;SDS011;60662;48.810;8.872;2023-05-09T08:50:56;12.20;;;7.57;;
3696;SDS011;60662;48.810;8.872;2023-05-09T08:51:58;9.32;;;7.22;;
3696;SDS011;60662;48.810;8.872;2023-05-09T08:53:00;10.10;;;7.35;;
3696;SDS011;60662;48.810;8.872;2023-05-09T08:54:02;13.52;;;8.18;;
3696;SDS011;60662;48.810;8.872;2023-05-09T08:55:04;11.38;;;7.55;;
3696;SDS011;60662;48.810;8.872;2023-05-09T08:56:05;16.67;;;7.20;;
3696;SDS011;60662;48.810;8.872;2023-05-09T08:57:07;66.38;;;41.58;;
3696;SDS011;60662;48.810;8.872;2023-05-09T08:58:09;39.92;;;23.95;;
3696;SDS011;60662;48.810;8.872;2023-05-09T08:59:11;10.18;;;6.93;;
3696;SDS011;60662;48.810;8.872;2023-05-09T09:00:14;11.77;;;6.78;;
3696;SDS011;60662;48.810;8.872;2023-05-09T09:01:21;8.43;;;5.85;;
3696;SDS011;60662;48.810;8.872;2023-05-09T09:02:23;8.25;;;5.85;;
3696;SDS011;60662;48.810;8.872;2023-05-09T09:03:25;8.95;;;6.32;;
3696;SDS011;60662;48.810;8.872;2023-05-09T09:04:27;7.47;;;5.72;;
3696;SDS011;60662;48.810;8.872;2023-05-09T09:05:29;12.85;;;6.75;;
3696;SDS011;60662;48.810;8.872;2023-05-09T09:06:42;9.30;;;6.10;;
3696;SDS011;60662;48.810;8.872;2023-05-09T09:07:44;9.23;;;6.93;;
3696;SDS011;60662;48.810;8.872;2023-05-09T09:08:46;7.85;;;5.78;;
3696;SDS011;60662;48.810;8.872;2023-05-09T09:09:49;7.38;;;5.07;;
3696;SDS011;60662;48.810;8.872;2023-05-09T09:10:52;6.93;;;5.57;;
3696;SDS011;60662;48.810;8.872;2023-05-09T09:11:54;6.75;;;4.20;;
3696;SDS011;60662;48.810;8.872;2023-05-09T09:12:57;8.38;;;4.65;;
3696;SDS011;60662;48.810;8.872;2023-05-09T09:14:01;8.30;;;5.10;;
3696;SDS011;60662;48.810;8.872;2023-05-09T09:15:13;7.28;;;4.93;;
3696;SDS011;60662;48.810;8.872;2023-05-09T09:16:19;6.85;;;4.57;;
3696;SDS011;60662;48.810;8.872;2023-05-09T09:17:25;7.80;;;5.05;;
3696;SDS011;60662;48.810;8.872;2023-05-09T09:18:30;7.88;;;5.03;;
3696;SDS011;60662;48.810;8.872;2023-05-09T09:19:34;9.13;;;5.18;;
3696;SDS011;60662;48.810;8.872;2023-05-09T09:20:39;6.25;;;5.10;;
3696;SDS011;60662;48.810;8.872;2023-05-09T09:21:46;8.02;;;5.53;;
3696;SDS011;60662;48.810;8.872;2023-05-09T09:22:49;6.90;;;4.78;;
3696;SDS011;60662;48.810;8.872;2023-05-09T09:23:53;6.65;;;4.93;;
3696;SDS011;60662;48.810;8.872;2023-05-09T09:24:56;7.20;;;4.43;;
3696;SDS011;60662;48.810;8.872;2023-05-09T09:26:00;6.70;;;4.93;;
3696;SDS011;60662;48.810;8.872;2023-05-09T09:27:04;11.23;;;4.00;;
3696;SDS011;60662;48.810;8.872;2023-05-09T09:28:06;8.70;;;3.45;;
3696;SDS011;60662;48.810;8.872;2023-05-09T09:29:08;5.82;;;3.90;;
3696;SDS011;60662;48.810;8.872;2023-05-09T09:30:10;7.57;;;4.30;;
3696;SDS011;60662;48.810;8.872;2023-05-09T09:31:19;5.80;;;4.28;;
3696;SDS011;60662;48.810;8.872;2023-05-09T09:32:31;7.15;;;4.47;;
3696;SDS011;60662;48.810;8.872;2023-05-09T09:33:34;6.60;;;4.32;;
3696;SDS011;60662;48.810;8.872;2023-05-09T09:34:36;10.25;;;4.80;;
3696;SDS011;60662;48.810;8.872;2023-05-09T09:35:37;6.40;;;3.60;;
3696;SDS011;60662;48.810;8.872;2023-05-09T09:36:39;6.78;;;3.90;;
3696;SDS011;60662;48.810;8.872;2023-05-09T09:37:41;4.68;;;3.58;;
3696;SDS011;60662;48.810;8.872;2023-05-09T09:38:43;5.85;;;3.85;;
3696;SDS011;60662;48.810;8.872;2023-05-09T09:39:57;5.13;;;3.90;;
3696;SDS011;60662;48.810;8.872;2023-05-09T09:40:58;7.32;;;4.13;;
3696;SDS011;60662;48.810;8.872;2023-05-09T09:42:09;7.30;;;3.92;;
3696;SDS011;60662;48.810;8.872;2023-05-09T09:43:12;5.90;;;2.85;;
3696;SDS011;60662;48.810;8.872;2023-05-09T09:44:15;4.93;;;3.25;;
3696;SDS011;60662;48.810;8.872;2023-05-09T09:45:18;6.90;;;4.72;;
3696;SDS011;60662;48.810;8.872;2023-05-09T09:46:20;6.97;;;5.03;;
3696;SDS011;60662;48.810;8.872;2023-05-09T09:47:31;5.82;;;3.92;;
3696;SDS011;60662;48.810;8.872;2023-05-09T09:48:34;5.60;;;3.67;;
3696;SDS011;60662;48.810;8.872;2023-05-09T09:49:36;4.35;;;2.90;;
3696;SDS011;60662;48.810;8.872;2023-05-09T09:50:38;6.30;;;3.72;;
3696;SDS011;60662;48.810;8.872;2023-05-09T09:51:40;5.55;;;3.50;;
3696;SDS011;60662;48.810;8.872;2023-05-09T09:52:48;5.82;;;3.95;;
3696;SDS011;60662;48.810;8.872;2023-05-09T09:53:51;4.85;;;3.53;;
3696;SDS011;60662;48.810;8.872;2023-05-09T09:54:56;5.50;;;3.53;;
3696;SDS011;60662;48.810;8.872;2023-05-09T09:55:58;7.05;;;4.53;;
3696;SDS011;60662;48.810;8.872;2023-05-09T09:56:59;11.68;;;3.17;;
3696;SDS011;60662;48.810;8.872;2023-05-09T09:58:02;4.60;;;3.35;;
3696;SDS011;60662;48.810;8.872;2023-05-09T09:59:16;4.28;;;2.97;;
3696;SDS011;60662;48.810;8.872;2023-05-09T10:00:23;7.22;;;2.85;;
3696;SDS011;60662;48.810;8.872;2023-05-09T10:01:26;4.95;;;2.88;;
3696;SDS011;60662;48.810;8.872;2023-05-09T10:02:28;5.72;;;3.47;;
3696;SDS011;60662;48.810;8.872;2023-05-09T10:04:38;3.90;;;2.22;;
3696;SDS011;60662;48.810;8.872;2023-05-09T10:05:42;2.70;;;2.15;;
3696;SDS011;60662;48.810;8.872;2023-05-09T10:06:50;3.35;;;2.20;;
3696;SDS011;60662;48.810;8.872;2023-05-09T10:07:56;3.92;;;2.50;;
3696;SDS011;60662;48.810;8.872;2023-05-09T10:09:02;6.45;;;2.40;;
3696;SDS011;60662;48.810;8.872;2023-05-09T10:10:04;2.90;;;2.35;;
3696;SDS011;60662;48.810;8.872;2023-05-09T10:11:06;8.07;;;2.40;;
3696;SDS011;60662;48.810;8.872;2023-05-09T10:12:09;5.70;;;2.65;;
3696;SDS011;60662;48.810;8.872;2023-05-09T10:13:10;3.20;;;2.40;;
3696;SDS011;60662;48.810;8.872;2023-05-09T10:14:12;4.22;;;2.95;;
3696;SDS011;60662;48.810;8.872;2023-05-09T10:15:15;4.28;;;2.78;;
3696;SDS011;60662;48.810;8.872;2023-05-09T10:16:20;3.72;;;2.45;;
3696;SDS011;60662;48.810;8.872;2023-05-09T10:17:40;5.90;;;2.55;;
3696;SDS011;60662;48.810;8.872;2023-05-09T10:18:42;2.67;;;2.15;;
3696;SDS011;60662;48.810;8.872;2023-05-09T10:19:44;2.90;;;2.05;;
3696;SDS011;60662;48.810;8.872;2023-05-09T10:20:47;4.60;;;2.08;;
3696;SDS011;60662;48.810;8.872;2023-05-09T10:21:56;4.63;;;2.10;;
3696;SDS011;60662;48.810;8.872;2023-05-09T10:23:01;3.38;;;1.70;;
3696;SDS011;60662;48.810;8.872;2023-05-09T10:24:04;8.82;;;1.73;;
3696;SDS011;60662;48.810;8.872;2023-05-09T10:26:44;7.55;;;2.00;;
3696;SDS011;60662;48.810;8.872;2023-05-09T10:27:48;3.13;;;2.17;;
3696;SDS011;60662;48.810;8.872;2023-05-09T10:28:54;7.40;;;2.22;;
3696;SDS011;60662;48.810;8.872;2023-05-09T10:32:16;3.22;;;2.08;;
3696;SDS011;60662;48.810;8.872;2023-05-09T10:33:30;2.90;;;2.28;;
3696;SDS011;60662;48.810;8.872;2023-05-09T10:34:39;4.90;;;2.40;;
3696;SDS011;60662;48.810;8.872;2023-05-09T10:35:45;3.45;;;2.20;;
3696;SDS011;60662;48.810;8.872;2023-05-09T10:36:47;3.58;;;2.10;;
3696;SDS011;60662;48.810;8.872;2023-05-09T10:37:49;6.65;;;2.85;;
3696;SDS011;60662;48.810;8.872;2023-05-09T10:38:54;5.40;;;3.65;;
3696;SDS011;60662;48.810;8.872;2023-05-09T10:39:56;6.28;;;3.28;;
3696;SDS011;60662;48.810;8.872;2023-05-09T10:41:00;6.00;;;2.50;;
3696;SDS011;60662;48.810;8.872;2023-05-09T10:42:02;3.20;;;2.28;;
3696;SDS011;60662;48.810;8.872;2023-05-09T10:43:05;3.65;;;2.63;;
3696;SDS011;60662;48.810;8.872;2023-05-09T10:44:07;9.95;;;3.05;;
3696;SDS011;60662;48.810;8.872;2023-05-09T10:45:09;5.20;;;2.85;;
3696;SDS011;60662;48.810;8.872;2023-05-09T10:46:13;6.55;;;3.40;;
3696;SDS011;60662;48.810;8.872;2023-05-09T10:47:15;4.72;;;2.90;;
3696;SDS011;60662;48.810;8.872;2023-05-09T10:48:17;6.72;;;3.10;;
3696;SDS011;60662;48.810;8.872;2023-05-09T10:49:19;6.40;;;3.75;;
3696;SDS011;60662;48.810;8.872;2023-05-09T10:50:21;3.90;;;2.58;;
3696;SDS011;60662;48.810;8.872;2023-05-09T10:51:23;5.55;;;3.63;;
3696;SDS011;60662;48.810;8.872;2023-05-09T10:52:28;10.93;;;3.58;;
3696;SDS011;60662;48.810;8.872;2023-05-09T10:53:48;6.18;;;4.32;;
3696;SDS011;60662;48.810;8.872;2023-05-09T10:54:57;6.25;;;4.30;;
3696;SDS011;60662;48.810;8.872;2023-05-09T10:56:03;5.30;;;2.85;;
3696;SDS011;60662;48.810;8.872;2023-05-09T10:57:07;4.75;;;3.08;;
3696;SDS011;60662;48.810;8.872;2023-05-09T10:58:19;6.65;;;3.35;;
3696;SDS011;60662;48.810;8.872;2023-05-09T10:59:35;5.47;;;3.42;;
3696;SDS011;60662;48.810;8.872;2023-05-09T11:00:41;6.68;;;3.45;;
3696;SDS011;60662;48.810;8.872;2023-05-09T11:01:43;10.65;;;3.45;;
3696;SDS011;60662;48.810;8.872;2023-05-09T11:03:04;6.80;;;3.42;;
3696;SDS011;60662;48.810;8.872;2023-05-09T11:04:10;5.10;;;2.95;;
3696;SDS011;60662;48.810;8.872;2023-05-09T11:05:17;4.55;;;2.83;;
3696;SDS011;60662;48.810;8.872;2023-05-09T11:06:39;4.40;;;3.30;;
3696;SDS011;60662;48.810;8.872;2023-05-09T11:09:33;7.70;;;3.28;;
3696;SDS011;60662;48.810;8.872;2023-05-09T11:10:41;8.63;;;3.53;;
3696;SDS011;60662;48.810;8.872;2023-05-09T11:11:51;5.82;;;3.47;;
3696;SDS011;60662;48.810;8.872;2023-05-09T11:12:58;7.90;;;2.55;;
3696;SDS011;60662;48.810;8.872;2023-05-09T11:14:00;3.10;;;2.20;;
3696;SDS011;60662;48.810;8.872;2023-05-09T11:15:05;7.97;;;3.40;;
3696;SDS011;60662;48.810;8.872;2023-05-09T11:16:08;6.18;;;3.30;;
3696;SDS011;60662;48.810;8.872;2023-05-09T11:17:12;4.85;;;3.05;;
3696;SDS011;60662;48.810;8.872;2023-05-09T11:18:14;6.35;;;3.38;;
3696;SDS011;60662;48.810;8.872;2023-05-09T11:19:32;8.23;;;3.67;;
3696;SDS011;60662;48.810;8.872;2023-05-09T11:20:35;3.95;;;2.88;;
3696;SDS011;60662;48.810;8.872;2023-05-09T11:21:58;13.18;;;8.52;;
3696;SDS011;60662;48.810;8.872;2023-05-09T11:23:04;14.55;;;3.70;;
3696;SDS011;60662;48.810;8.872;2023-05-09T11:24:14;4.15;;;3.10;;
3696;SDS011;60662;48.810;8.872;2023-05-09T11:25:23;6.13;;;3.90;;
3696;SDS011;60662;48.810;8.872;2023-05-09T11:26:27;7.97;;;3.70;;
3696;SDS011;60662;48.810;8.872;2023-05-09T11:27:37;8.13;;;4.40;;
3696;SDS011;60662;48.810;8.872;2023-05-09T11:28:40;4.90;;;3.40;;
3696;SDS011;60662;48.810;8.872;2023-05-09T11:29:43;5.10;;;3.78;;
3696;SDS011;60662;48.810;8.872;2023-05-09T11:30:45;7.35;;;3.10;;
3696;SDS011;60662;48.810;8.872;2023-05-09T11:32:05;5.50;;;3.58;;
3696;SDS011;60662;48.810;8.872;2023-05-09T11:33:23;5.50;;;3.40;;
3696;SDS011;60662;48.810;8.872;2023-05-09T11:34:28;5.63;;;3.05;;
3696;SDS011;60662;48.810;8.872;2023-05-09T11:35:29;6.10;;;3.70;;
3696;SDS011;60662;48.810;8.872;2023-05-09T11:36:31;5.43;;;2.95;;
3696;SDS011;60662;48.810;8.872;2023-05-09T11:37:38;7.68;;;3.25;;
3696;SDS011;60662;48.810;8.872;2023-05-09T11:40:10;9.82;;;3.15;;
3696;SDS011;60662;48.810;8.872;2023-05-09T11:41:13;3.85;;;3.03;;
3696;SDS011;60662;48.810;8.872;2023-05-09T11:42:16;3.97;;;2.85;;
3696;SDS011;60662;48.810;8.872;2023-05-09T11:43:17;7.80;;;4.05;;
3696;SDS011;60662;48.810;8.872;2023-05-09T11:44:19;8.77;;;3.95;;
3696;SDS011;60662;48.810;8.872;2023-05-09T11:45:22;6.28;;;3.92;;
3696;SDS011;60662;48.810;8.872;2023-05-09T11:46:25;4.95;;;3.03;;
3696;SDS011;60662;48.810;8.872;2023-05-09T11:47:27;3.75;;;2.85;;
3696;SDS011;60662;48.810;8.872;2023-05-09T11:48:29;7.13;;;3.08;;
3696;SDS011;60662;48.810;8.872;2023-05-09T11:49:31;5.00;;;3.25;;
3696;SDS011;60662;48.810;8.872;2023-05-09T11:50:32;5.55;;;3.60;;
3696;SDS011;60662;48.810;8.872;2023-05-09T11:51:37;8.90;;;3.00;;
3696;SDS011;60662;48.810;8.872;2023-05-09T11:52:39;2.97;;;2.33;;
3696;SDS011;60662;48.810;8.872;2023-05-09T11:53:42;5.68;;;2.50;;
3696;SDS011;60662;48.810;8.872;2023-05-09T11:54:46;5.00;;;2.75;;
3696;SDS011;60662;48.810;8.872;2023-05-09T11:55:49;4.60;;;2.30;;
3696;SDS011;60662;48.810;8.872;2023-05-09T11:56:51;3.72;;;2.28;;
3696;SDS011;60662;48.810;8.872;2023-05-09T11:57:52;4.45;;;2.20;;
3696;SDS011;60662;48.810;8.872;2023-05-09T11:58:55;2.80;;;1.80;;
3696;SDS011;60662;48.810;8.872;2023-05-09T11:59:58;3.35;;;2.20;;
3696;SDS011;60662;48.810;8.872;2023-05-09T12:01:01;3.88;;;2.03;;
3696;SDS011;60662;48.810;8.872;2023-05-09T12:02:06;5.13;;;1.90;;
3696;SDS011;60662;48.810;8.872;2023-05-09T12:03:08;7.20;;;2.30;;
3696;SDS011;60662;48.810;8.872;2023-05-09T12:04:10;7.10;;;2.30;;
3696;SDS011;60662;48.810;8.872;2023-05-09T12:05:12;3.35;;;2.15;;
3696;SDS011;60662;48.810;8.872;2023-05-09T12:06:17;3.88;;;2.15;;
3696;SDS011;60662;48.810;8.872;2023-05-09T12:07:19;3.13;;;1.90;;
3696;SDS011;60662;48.810;8.872;2023-05-09T12:08:23;6.45;;;2.20;;
3696;SDS011;60662;48.810;8.872;2023-05-09T12:09:28;9.13;;;2.40;;
3696;SDS011;60662;48.810;8.872;2023-05-09T12:10:35;4.60;;;2.10;;
3696;SDS011;60662;48.810;8.872;2023-05-09T12:11:38;2.90;;;2.13;;
3696;SDS011;60662;48.810;8.872;2023-05-09T12:12:50;3.13;;;2.20;;
3696;SDS011;60662;48.810;8.872;2023-05-09T12:13:55;5.43;;;2.20;;
3696;SDS011;60662;48.810;8.872;2023-05-09T12:14:57;3.00;;;2.10;;
3696;SDS011;60662;48.810;8.872;2023-05-09T12:16:02;3.65;;;2.20;;
3696;SDS011;60662;48.810;8.872;2023-05-09T12:17:07;4.85;;;2.47;;
3696;SDS011;60662;48.810;8.872;2023-05-09T12:18:09;2.88;;;2.20;;
3696;SDS011;60662;48.810;8.872;2023-05-09T12:19:11;3.08;;;2.30;;
3696;SDS011;60662;48.810;8.872;2023-05-09T12:20:12;2.83;;;1.77;;
3696;SDS011;60662;48.810;8.872;2023-05-09T12:21:14;6.15;;;2.45;;
3696;SDS011;60662;48.810;8.872;2023-05-09T12:22:16;2.55;;;1.80;;
3696;SDS011;60662;48.810;8.872;2023-05-09T12:23:18;4.10;;;2.28;;
3696;SDS011;60662;48.810;8.872;2023-05-09T12:24:20;2.58;;;1.58;;
3696;SDS011;60662;48.810;8.872;2023-05-09T12:25:21;3.08;;;1.80;;
3696;SDS011;60662;48.810;8.872;2023-05-09T12:26:23;5.55;;;1.70;;
3696;SDS011;60662;48.810;8.872;2023-05-09T12:27:24;3.00;;;1.83;;
3696;SDS011;60662;48.810;8.872;2023-05-09T12:28:28;4.68;;;2.00;;
3696;SDS011;60662;48.810;8.872;2023-05-09T12:29:30;10.50;;;6.47;;
3696;SDS011;60662;48.810;8.872;2023-05-09T12:30:32;3.30;;;2.60;;
3696;SDS011;60662;48.810;8.872;2023-05-09T12:31:33;2.65;;;2.08;;
3696;SDS011;60662;48.810;8.872;2023-05-09T12:32:37;6.10;;;2.78;;
3696;SDS011;60662;48.810;8.872;2023-05-09T12:33:40;2.60;;;1.90;;
3696;SDS011;60662;48.810;8.872;2023-05-09T12:34:42;4.15;;;2.50;;
3696;SDS011;60662;48.810;8.872;2023-05-09T12:35:59;3.70;;;2.15;;
3696;SDS011;60662;48.810;8.872;2023-05-09T12:37:15;2.33;;;1.67;;
3696;SDS011;60662;48.810;8.872;2023-05-09T12:38:21;8.35;;;1.77;;
3696;SDS011;60662;48.810;8.872;2023-05-09T12:39:23;2.90;;;2.13;;
3696;SDS011;60662;48.810;8.872;2023-05-09T12:40:24;2.80;;;1.80;;
3696;SDS011;60662;48.810;8.872;2023-05-09T12:41:26;3.22;;;2.05;;
3696;SDS011;60662;48.810;8.872;2023-05-09T12:42:41;7.20;;;2.63;;
3696;SDS011;60662;48.810;8.872;2023-05-09T12:43:46;3.08;;;2.40;;
3696;SDS011;60662;48.810;8.872;2023-05-09T12:44:49;2.95;;;2.13;;
3696;SDS011;60662;48.810;8.872;2023-05-09T12:45:51;3.80;;;2.05;;
3696;SDS011;60662;48.810;8.872;2023-05-09T12:46:56;2.88;;;1.92;;
3696;SDS011;60662;48.810;8.872;2023-05-09T12:48:00;4.55;;;2.33;;
3696;SDS011;60662;48.810;8.872;2023-05-09T12:49:02;4.70;;;2.70;;
3696;SDS011;60662;48.810;8.872;2023-05-09T12:50:04;3.83;;;1.98;;
3696;SDS011;60662;48.810;8.872;2023-05-09T12:51:06;2.45;;;1.70;;
3696;SDS011;60662;48.810;8.872;2023-05-09T12:52:15;2.35;;;1.63;;
3696;SDS011;60662;48.810;8.872;2023-05-09T12:53:25;2.83;;;2.03;;
3696;SDS011;60662;48.810;8.872;2023-05-09T12:54:29;3.25;;;2.08;;
3696;SDS011;60662;48.810;8.872;2023-05-09T12:55:36;8.43;;;1.90;;
3696;SDS011;60662;48.810;8.872;2023-05-09T12:56:40;3.30;;;2.50;;
3696;SDS011;60662;48.810;8.872;2023-05-09T12:57:41;3.28;;;2.25;;
3696;SDS011;60662;48.810;8.872;2023-05-09T12:58:49;5.35;;;2.08;;
3696;SDS011;60662;48.810;8.872;2023-05-09T12:59:56;5.25;;;2.08;;
3696;SDS011;60662;48.810;8.872;2023-05-09T13:00:59;7.78;;;2.38;;
3696;SDS011;60662;48.810;8.872;2023-05-09T13:02:04;2.33;;;1.67;;
3696;SDS011;60662;48.810;8.872;2023-05-09T13:03:05;3.03;;;2.00;;
3696;SDS011;60662;48.810;8.872;2023-05-09T13:04:20;7.97;;;2.20;;
3696;SDS011;60662;48.810;8.872;2023-05-09T13:05:22;3.72;;;2.05;;
3696;SDS011;60662;48.810;8.872;2023-05-09T13:06:24;4.25;;;1.98;;
3696;SDS011;60662;48.810;8.872;2023-05-09T13:07:25;3.17;;;1.95;;
3696;SDS011;60662;48.810;8.872;2023-05-09T13:08:27;2.60;;;2.22;;
3696;SDS011;60662;48.810;8.872;2023-05-09T13:09:29;8.70;;;2.40;;